createdAt,value
2018-12-21T00:00:21.895Z,55.25
2018-12-21T00:00:57.971Z,49.08
2018-12-21T00:01:36.523Z,48.08
2018-12-21T00:02:13.013Z,51.90
2018-12-21T00:02:49.672Z,46.40
2018-12-21T00:03:26.491Z,47.55
2018-12-21T00:04:03.315Z,52.17
2018-12-21T00:04:39.315Z,55.58
2018-12-21T00:05:15.326Z,47.05
2018-12-21T00:05:51.723Z,49.23
2018-12-21T00:06:28.179Z,47.25
2018-12-21T00:07:04.637Z,47.58
2018-12-21T00:07:41.064Z,45.67
2018-12-21T00:08:17.115Z,49.48
2018-12-21T00:08:53.192Z,55.15
2018-12-21T00:09:29.235Z,49.15
2018-12-21T00:10:06.576Z,48.75
2018-12-21T00:10:42.599Z,48.05
2018-12-21T00:11:19.079Z,46.30
2018-12-21T00:11:55.078Z,49.20
2018-12-21T00:12:31.122Z,50.58
2018-12-21T00:13:07.166Z,51.40
2018-12-21T00:13:43.865Z,48.70
2018-12-21T00:14:20.315Z,46.95
2018-12-21T00:14:56.475Z,52.50
2018-12-21T00:15:32.593Z,51.53
2018-12-21T00:16:08.622Z,50.38
2018-12-21T00:16:44.650Z,51.70
2018-12-21T00:17:21.500Z,50.28
2018-12-21T00:17:57.521Z,55.67
2018-12-21T00:18:33.979Z,48.73
2018-12-21T00:19:10.397Z,51.23
2018-12-21T00:19:46.427Z,46.58
2018-12-21T00:20:22.829Z,45.45
2018-12-21T00:20:59.641Z,44.95
2018-12-21T00:21:36.019Z,45.75
2018-12-21T00:22:12.452Z,46.28
2018-12-21T00:22:48.449Z,45.30
2018-12-21T00:23:24.468Z,46.10
2018-12-21T00:24:00.811Z,48.23
2018-12-21T00:24:36.852Z,47.93
2018-12-21T00:25:13.310Z,48.08
2018-12-21T00:25:49.336Z,46.83
2018-12-21T00:26:25.434Z,46.98
2018-12-21T00:27:01.478Z,50.58
2018-12-21T00:27:37.830Z,50.80
2018-12-21T00:28:13.936Z,47.38
2018-12-21T00:28:50.024Z,47.25
2018-12-21T00:29:26.092Z,48.30
2018-12-21T00:30:03.652Z,50.23
2018-12-21T00:30:39.004Z,49.58
2018-12-21T00:31:20.598Z,43.95
2018-12-21T00:32:02.170Z,47.00
2018-12-21T00:32:44.042Z,47.62
2018-12-21T00:33:26.012Z,47.58
2018-12-21T00:34:07.631Z,44.73
2018-12-21T00:34:48.928Z,46.48
2018-12-21T00:35:30.785Z,47.93
2018-12-21T00:36:12.673Z,46.05
2018-12-21T00:36:54.136Z,52.13
2018-12-21T00:40:40.656Z,45.17
2018-12-21T00:41:16.655Z,45.48
2018-12-21T00:41:52.694Z,45.23
2018-12-21T00:43:33.662Z,46.58
2018-12-21T00:44:14.874Z,42.43
2018-12-21T00:44:54.610Z,43.35
2018-12-21T00:45:32.362Z,42.13
2018-12-21T00:46:15.977Z,47.35
2018-12-21T00:46:52.968Z,41.85
2018-12-21T00:47:29.260Z,48.08
2018-12-21T00:48:05.722Z,45.17
2018-12-21T00:48:41.789Z,48.75
2018-12-21T00:49:18.699Z,51.92
2018-12-21T00:49:54.720Z,45.20
2018-12-21T00:50:31.547Z,53.35
2018-12-21T00:51:07.858Z,46.20
2018-12-21T00:51:44.320Z,45.55
2018-12-21T00:52:20.358Z,48.38
2018-12-21T00:52:56.838Z,47.40
2018-12-21T00:53:32.833Z,46.25
2018-12-21T00:54:08.859Z,45.05
2018-12-21T00:54:45.544Z,47.40
2018-12-21T00:55:21.596Z,47.10
2018-12-21T00:55:58.368Z,45.00
2018-12-21T00:56:34.809Z,47.85
2018-12-21T00:57:10.886Z,47.90
2018-12-21T00:57:47.319Z,48.42
2018-12-21T00:58:23.750Z,50.80
2018-12-21T00:59:00.203Z,52.15
2018-12-21T00:59:36.302Z,53.02
2018-12-21T01:00:15.844Z,44.42
2018-12-21T01:00:51.864Z,48.63
2018-12-21T01:01:29.777Z,53.63
2018-12-21T01:02:06.208Z,47.50
2018-12-21T01:02:42.892Z,46.08
2018-12-21T01:03:18.924Z,48.75
2018-12-21T01:03:55.326Z,48.02
2018-12-21T01:04:32.138Z,48.80
2018-12-21T01:05:08.952Z,48.25
2018-12-21T01:05:45.677Z,47.67
2018-12-21T01:06:22.080Z,44.38
2018-12-21T01:06:58.092Z,49.35
2018-12-21T01:07:34.924Z,45.03
2018-12-21T01:08:11.751Z,48.33
2018-12-21T01:08:47.808Z,45.88
2018-12-21T01:09:24.305Z,45.58
2018-12-21T01:10:01.052Z,47.88
2018-12-21T01:10:37.832Z,46.83
2018-12-21T01:11:13.904Z,50.38
2018-12-21T01:11:50.026Z,43.80
2018-12-21T01:12:26.506Z,44.08
2018-12-21T01:13:03.370Z,45.30
2018-12-21T01:13:39.619Z,42.43
2018-12-21T01:14:16.332Z,48.15
2018-12-21T01:14:53.472Z,46.33
2018-12-21T01:15:30.476Z,40.78
2018-12-21T01:16:07.392Z,44.80
2018-12-21T01:16:43.844Z,45.55
2018-12-21T01:17:21.091Z,43.40
2018-12-21T01:17:57.701Z,47.15
2018-12-21T01:18:33.973Z,45.25
2018-12-21T01:19:11.024Z,46.70
2018-12-21T01:19:47.923Z,44.40
2018-12-21T01:20:24.280Z,44.90
2018-12-21T01:21:01.464Z,47.60
2018-12-21T01:21:38.961Z,46.30
2018-12-21T01:22:16.575Z,47.15
2018-12-21T01:22:53.467Z,43.28
2018-12-21T01:23:29.536Z,44.67
2018-12-21T01:24:06.010Z,43.65
2018-12-21T01:24:41.999Z,44.67
2018-12-21T01:25:18.408Z,43.63
2018-12-21T01:25:54.655Z,44.80
2018-12-21T01:26:31.079Z,50.05
2018-12-21T01:27:07.511Z,44.58
2018-12-21T01:27:43.527Z,45.08
2018-12-21T01:28:19.552Z,45.38
2018-12-21T01:28:56.318Z,47.98
2018-12-21T01:29:32.359Z,49.93
2018-12-21T01:30:09.153Z,45.15
2018-12-21T01:30:47.499Z,45.17
2018-12-21T01:31:24.311Z,45.90
2018-12-21T01:32:00.756Z,43.33
2018-12-21T01:32:36.812Z,40.98
2018-12-21T01:33:12.896Z,49.63
2018-12-21T01:33:48.938Z,48.78
2018-12-21T01:34:24.969Z,45.15
2018-12-21T01:35:00.985Z,43.98
2018-12-21T01:35:37.415Z,45.38
2018-12-21T01:36:13.479Z,48.23
2018-12-21T01:36:49.504Z,46.33
2018-12-21T01:37:25.509Z,46.28
2018-12-21T01:38:01.559Z,47.98
2018-12-21T01:38:37.593Z,46.73
2018-12-21T01:39:13.598Z,44.95
2018-12-21T01:39:49.627Z,48.48
2018-12-21T01:40:26.447Z,46.77
2018-12-21T01:41:03.173Z,43.70
2018-12-21T01:41:39.588Z,48.10
2018-12-21T01:42:15.666Z,48.42
2018-12-21T01:42:52.330Z,46.65
2018-12-21T01:43:28.695Z,46.90
2018-12-21T01:44:05.113Z,47.62
2018-12-21T01:44:41.136Z,56.37
2018-12-21T01:45:17.584Z,48.08
2018-12-21T01:45:53.628Z,49.05
2018-12-21T01:46:30.123Z,46.85
2018-12-21T01:47:06.155Z,52.33
2018-12-21T01:47:42.572Z,53.40
2018-12-21T01:48:19.034Z,45.85
2018-12-21T01:48:55.079Z,42.62
2018-12-21T01:49:31.084Z,49.23
2018-12-21T01:50:08.111Z,47.48
2018-12-21T01:50:44.576Z,46.80
2018-12-21T01:51:20.620Z,42.45
2018-12-21T01:51:57.746Z,44.77
2018-12-21T01:52:33.960Z,41.58
2018-12-21T01:53:10.217Z,51.13
2018-12-21T01:53:46.267Z,50.67
2018-12-21T01:54:22.312Z,48.58
2018-12-21T01:54:58.310Z,44.15
2018-12-21T01:55:35.114Z,48.02
2018-12-21T01:56:11.565Z,45.25
2018-12-21T01:56:48.159Z,46.75
2018-12-21T01:57:24.165Z,46.65
2018-12-21T01:58:00.211Z,49.30
2018-12-21T01:58:36.254Z,49.15
2018-12-21T01:59:12.338Z,45.60
2018-12-21T01:59:48.394Z,45.40
2018-12-21T02:00:24.414Z,48.42
2018-12-21T02:01:00.432Z,44.65
2018-12-21T02:01:36.486Z,46.68
2018-12-21T02:02:13.282Z,47.65
2018-12-21T02:02:49.354Z,46.55
2018-12-21T02:03:25.782Z,47.10
2018-12-21T02:04:01.867Z,43.10
2018-12-21T02:04:37.866Z,43.63
2018-12-21T02:05:14.321Z,47.33
2018-12-21T02:05:50.727Z,48.42
2018-12-21T02:06:27.148Z,51.85
2018-12-21T02:07:03.594Z,48.05
2018-12-21T02:07:39.593Z,44.88
2018-12-21T02:08:15.634Z,47.62
2018-12-21T02:08:51.709Z,49.25
2018-12-21T02:09:27.965Z,45.70
2018-12-21T02:10:05.674Z,45.55
2018-12-21T02:10:41.709Z,49.13
2018-12-21T02:11:18.152Z,47.17
2018-12-21T02:11:54.203Z,47.67
2018-12-21T02:12:30.212Z,48.02
2018-12-21T02:13:06.669Z,45.17
2018-12-21T02:13:43.127Z,43.58
2018-12-21T02:14:19.138Z,41.73
2018-12-21T02:14:55.597Z,49.60
2018-12-21T02:15:32.105Z,42.35
2018-12-21T02:16:08.500Z,44.38
2018-12-21T02:16:44.502Z,42.50
2018-12-21T02:17:20.528Z,44.03
2018-12-21T02:17:57.379Z,39.88
2018-12-21T02:18:33.459Z,48.38
2018-12-21T02:19:09.474Z,45.67
2018-12-21T02:19:45.530Z,41.85
2018-12-21T02:20:22.004Z,43.80
2018-12-21T02:20:58.065Z,44.08
2018-12-21T02:21:34.101Z,41.63
2018-12-21T02:22:10.558Z,41.30
2018-12-21T02:22:47.270Z,43.68
2018-12-21T02:23:23.750Z,44.80
2018-12-21T02:23:59.772Z,42.78
2018-12-21T02:24:36.706Z,41.30
2018-12-21T02:25:13.204Z,38.60
2018-12-21T02:25:49.610Z,42.93
2018-12-21T02:26:25.632Z,39.27
2018-12-21T02:27:02.805Z,43.92
2018-12-21T02:27:39.656Z,44.23
2018-12-21T02:28:15.916Z,43.60
2018-12-21T02:28:52.598Z,41.73
2018-12-21T02:29:28.751Z,43.75
2018-12-21T02:30:06.310Z,42.35
2018-12-21T02:30:42.748Z,47.65
2018-12-21T02:31:19.488Z,42.23
2018-12-21T02:31:55.692Z,43.23
2018-12-21T02:32:31.737Z,41.28
2018-12-21T02:33:07.750Z,46.40
2018-12-21T02:33:44.175Z,41.20
2018-12-21T02:34:20.547Z,43.23
2018-12-21T02:34:56.754Z,43.25
2018-12-21T02:35:33.943Z,39.70
2018-12-21T02:36:09.988Z,40.45
2018-12-21T02:37:31.191Z,41.02
2018-12-21T02:38:09.591Z,38.13
2018-12-21T02:38:45.728Z,43.65
2018-12-21T02:39:22.034Z,39.50
2018-12-21T02:39:58.676Z,39.92
2018-12-21T02:40:34.693Z,39.78
2018-12-21T02:41:10.717Z,40.12
2018-12-21T02:41:46.751Z,40.67
2018-12-21T02:42:23.147Z,40.90
2018-12-21T02:42:59.143Z,37.25
2018-12-21T02:43:35.338Z,40.35
2018-12-21T02:44:11.373Z,41.88
2018-12-21T02:44:47.833Z,42.83
2018-12-21T02:45:24.243Z,43.63
2018-12-21T02:46:00.336Z,40.35
2018-12-21T02:46:36.344Z,39.50
2018-12-21T02:47:12.347Z,38.45
2018-12-21T02:47:48.361Z,48.15
2018-12-21T02:48:24.780Z,40.30
2018-12-21T02:49:01.237Z,40.25
2018-12-21T02:49:37.261Z,38.88
2018-12-21T02:50:13.372Z,44.08
2018-12-21T02:50:49.784Z,39.78
2018-12-21T02:51:26.147Z,40.73
2018-12-21T02:52:05.711Z,37.73
2018-12-21T02:52:40.216Z,40.55
2018-12-21T02:53:16.361Z,39.53
2018-12-21T02:53:53.045Z,43.70
2018-12-21T02:54:29.373Z,38.88
2018-12-21T02:55:06.230Z,41.88
2018-12-21T02:55:42.933Z,38.95
2018-12-21T02:56:19.367Z,39.00
2018-12-21T02:56:55.382Z,39.30
2018-12-21T02:57:31.852Z,39.25
2018-12-21T02:58:07.985Z,40.98
2018-12-21T02:58:44.609Z,39.78
2018-12-21T02:59:21.077Z,36.48
2018-12-21T02:59:57.123Z,39.23
2018-12-21T03:00:33.537Z,42.83
2018-12-21T03:01:09.952Z,37.13
2018-12-21T03:01:46.473Z,40.75
2018-12-21T03:02:22.955Z,40.28
2018-12-21T03:02:59.027Z,40.20
2018-12-21T03:03:35.856Z,40.12
2018-12-21T03:04:12.333Z,41.45
2018-12-21T03:04:49.243Z,37.78
2018-12-21T03:05:25.698Z,34.50
2018-12-21T03:06:01.741Z,42.15
2018-12-21T03:06:38.211Z,38.28
2018-12-21T03:07:14.269Z,38.30
2018-12-21T03:07:50.729Z,40.55
2018-12-21T03:08:27.169Z,43.00
2018-12-21T03:09:05.436Z,39.08
2018-12-21T03:09:41.494Z,38.17
2018-12-21T03:10:17.550Z,39.10
2018-12-21T03:10:53.607Z,39.08
2018-12-21T03:11:29.991Z,40.85
2018-12-21T03:12:06.064Z,38.23
2018-12-21T03:12:42.528Z,41.00
2018-12-21T03:13:18.605Z,36.65
2018-12-21T03:13:54.650Z,41.88
2018-12-21T03:14:30.707Z,36.48
2018-12-21T03:15:07.694Z,39.25
2018-12-21T03:15:44.123Z,34.50
2018-12-21T03:16:20.140Z,38.75
2018-12-21T03:16:56.159Z,39.63
2018-12-21T03:17:32.590Z,37.05
2018-12-21T03:18:09.625Z,38.60
2018-12-21T03:18:46.248Z,38.23
2018-12-21T03:19:22.784Z,39.13
2018-12-21T03:19:58.784Z,42.17
2018-12-21T03:20:34.837Z,40.35
2018-12-21T03:21:10.961Z,36.65
2018-12-21T03:21:48.187Z,32.25
2018-12-21T03:22:24.271Z,34.95
2018-12-21T03:23:00.272Z,39.45
2018-12-21T03:23:36.706Z,37.45
2018-12-21T03:24:12.749Z,40.65
2018-12-21T03:24:48.751Z,37.50
2018-12-21T03:25:25.200Z,37.45
2018-12-21T03:26:01.217Z,35.45
2018-12-21T03:26:37.226Z,36.25
2018-12-21T03:27:13.636Z,37.40
2018-12-21T03:27:49.667Z,41.80
2018-12-21T03:28:25.731Z,39.10
2018-12-21T03:29:02.161Z,37.10
2018-12-21T03:29:38.613Z,38.85
2018-12-21T03:30:15.323Z,36.23
2018-12-21T03:30:51.441Z,34.67
2018-12-21T03:31:28.265Z,38.28
2018-12-21T03:32:04.711Z,39.48
2018-12-21T03:32:40.701Z,34.48
2018-12-21T03:33:17.256Z,40.85
2018-12-21T03:33:53.642Z,35.78
2018-12-21T03:34:30.047Z,38.25
2018-12-21T03:35:07.286Z,38.25
2018-12-21T03:35:43.355Z,37.60
2018-12-21T03:36:20.185Z,32.17
2018-12-21T03:36:56.303Z,36.53
2018-12-21T03:37:32.480Z,36.88
2018-12-21T03:38:09.292Z,34.85
2018-12-21T03:38:45.367Z,38.35
2018-12-21T03:39:21.783Z,35.80
2018-12-21T03:39:58.216Z,35.05
2018-12-21T03:40:34.291Z,35.40
2018-12-21T03:41:10.322Z,34.98
2018-12-21T03:41:46.366Z,34.75
2018-12-21T03:42:22.406Z,40.80
2018-12-21T03:42:58.819Z,35.00
2018-12-21T03:43:35.135Z,35.13
2018-12-21T03:44:11.475Z,38.10
2018-12-21T03:44:47.912Z,36.90
2018-12-21T03:45:24.327Z,38.53
2018-12-21T03:46:00.423Z,36.28
2018-12-21T03:46:37.500Z,37.48
2018-12-21T03:47:13.973Z,32.48
2018-12-21T03:47:49.972Z,38.50
2018-12-21T03:48:26.512Z,37.17
2018-12-21T03:49:03.317Z,34.78
2018-12-21T03:49:39.744Z,36.65
2018-12-21T03:50:16.558Z,37.93
2018-12-21T03:50:52.769Z,41.77
2018-12-21T03:51:29.506Z,32.15
2018-12-21T03:52:05.517Z,38.15
2018-12-21T03:52:41.548Z,32.55
2018-12-21T03:53:17.580Z,39.38
2018-12-21T03:53:53.602Z,35.95
2018-12-21T03:54:29.659Z,39.20
2018-12-21T03:55:06.162Z,36.20
2018-12-21T03:55:42.224Z,36.60
2018-12-21T03:56:18.304Z,33.02
2018-12-21T03:56:54.332Z,40.08
2018-12-21T03:57:30.381Z,38.55
2018-12-21T03:58:07.197Z,36.20
2018-12-21T03:58:43.621Z,34.60
2018-12-21T03:59:20.060Z,33.00
2018-12-21T03:59:56.546Z,35.83
2018-12-21T04:00:32.810Z,38.23
2018-12-21T04:01:09.222Z,34.30
2018-12-21T04:01:45.273Z,34.55
2018-12-21T04:02:21.736Z,35.55
2018-12-21T04:02:57.778Z,38.33
2018-12-21T04:03:33.810Z,36.48
2018-12-21T04:04:10.576Z,37.60
2018-12-21T04:04:46.593Z,36.90
2018-12-21T04:05:22.603Z,39.05
2018-12-21T04:05:58.615Z,35.68
2018-12-21T04:06:35.055Z,36.60
2018-12-21T04:07:11.480Z,35.45
2018-12-21T04:07:47.504Z,30.17
2018-12-21T04:08:23.920Z,33.98
2018-12-21T04:08:59.946Z,36.73
2018-12-21T04:09:35.965Z,31.17
2018-12-21T04:10:12.388Z,34.33
2018-12-21T04:10:48.410Z,37.65
2018-12-21T04:11:24.476Z,32.70
2018-12-21T04:12:00.518Z,41.05
2018-12-21T04:12:36.550Z,34.58
2018-12-21T04:13:12.613Z,35.40
2018-12-21T04:13:48.880Z,33.00
2018-12-21T04:14:24.914Z,31.02
2018-12-21T04:15:01.350Z,34.83
2018-12-21T04:15:38.472Z,32.28
2018-12-21T04:16:14.516Z,31.65
2018-12-21T04:16:50.508Z,32.40
2018-12-21T04:17:26.523Z,35.08
2018-12-21T04:18:02.570Z,38.08
2018-12-21T04:18:39.022Z,36.70
2018-12-21T04:19:15.315Z,32.93
2018-12-21T04:19:51.335Z,32.42
2018-12-21T04:20:27.737Z,33.60
2018-12-21T04:21:04.178Z,32.00
2018-12-21T04:21:40.606Z,32.45
2018-12-21T04:22:16.629Z,34.75
2018-12-21T04:22:52.646Z,33.20
2018-12-21T04:23:29.076Z,32.50
2018-12-21T04:24:05.432Z,33.83
2018-12-21T04:24:41.799Z,35.88
2018-12-21T04:25:18.230Z,32.85
2018-12-21T04:25:54.250Z,31.97
2018-12-21T04:26:30.740Z,37.40
2018-12-21T04:27:07.163Z,42.27
2018-12-21T04:27:43.162Z,31.60
2018-12-21T04:28:19.588Z,32.28
2018-12-21T04:28:55.619Z,34.60
2018-12-21T04:29:31.802Z,35.13
2018-12-21T04:30:09.385Z,32.83
2018-12-21T04:30:45.730Z,36.65
2018-12-21T04:31:22.498Z,32.23
2018-12-21T04:31:58.551Z,32.75
2018-12-21T04:32:35.305Z,31.93
2018-12-21T04:33:11.364Z,33.02
2018-12-21T04:33:47.446Z,33.92
2018-12-21T04:34:23.867Z,30.15
2018-12-21T04:34:59.896Z,30.95
2018-12-21T04:35:35.946Z,30.48
2018-12-21T04:36:12.392Z,34.90
2018-12-21T04:36:48.842Z,35.65
2018-12-21T04:37:24.891Z,31.97
2018-12-21T04:38:00.886Z,34.27
2018-12-21T04:38:37.313Z,31.68
2018-12-21T04:39:13.740Z,37.75
2018-12-21T04:39:49.786Z,32.05
2018-12-21T04:40:25.801Z,34.92
2018-12-21T04:41:01.854Z,31.33
2018-12-21T04:41:38.332Z,31.10
2018-12-21T04:42:14.430Z,32.85
2018-12-21T04:42:50.459Z,30.90
2018-12-21T04:43:26.468Z,34.53
2018-12-21T04:44:02.904Z,31.55
2018-12-21T04:44:38.918Z,33.60
2018-12-21T04:45:14.928Z,38.35
2018-12-21T04:45:51.649Z,40.03
2018-12-21T04:46:27.694Z,32.17
2018-12-21T04:47:03.734Z,34.78
2018-12-21T04:47:39.774Z,37.17
2018-12-21T04:48:15.780Z,34.78
2018-12-21T04:48:51.782Z,36.50
2018-12-21T04:49:28.336Z,35.13
2018-12-21T04:50:05.847Z,35.70
2018-12-21T04:50:41.898Z,31.52
2018-12-21T04:51:17.981Z,31.20
2018-12-21T04:51:54.471Z,31.93
2018-12-21T04:52:30.810Z,35.80
2018-12-21T04:53:06.899Z,33.28
2018-12-21T04:53:42.946Z,34.92
2018-12-21T04:54:19.406Z,34.95
2018-12-21T04:54:55.450Z,30.52
2018-12-21T04:55:31.512Z,34.73
2018-12-21T04:56:07.561Z,34.65
2018-12-21T04:56:43.597Z,39.27
2018-12-21T04:57:20.088Z,32.65
2018-12-21T04:57:56.144Z,35.03
2018-12-21T04:58:32.720Z,33.55
2018-12-21T04:59:09.744Z,37.53
2018-12-21T04:59:46.573Z,34.25
2018-12-21T05:00:23.066Z,33.83
2018-12-21T05:00:59.540Z,32.67
2018-12-21T05:01:35.556Z,39.38
2018-12-21T05:02:11.604Z,31.70
2018-12-21T05:02:47.634Z,33.73
2018-12-21T05:03:24.065Z,30.95
2018-12-21T05:04:00.472Z,34.23
2018-12-21T05:04:36.500Z,30.75
2018-12-21T05:05:19.184Z,37.38
2018-12-21T05:05:55.669Z,31.40
2018-12-21T05:06:31.965Z,34.40
2018-12-21T05:07:12.611Z,28.70
2018-12-21T05:07:47.548Z,33.98
2018-12-21T05:08:23.582Z,32.15
2018-12-21T05:08:59.616Z,32.30
2018-12-21T05:09:35.644Z,36.42
2018-12-21T05:10:12.505Z,32.08
2018-12-21T05:10:48.536Z,35.05
2018-12-21T05:11:24.550Z,35.15
2018-12-21T05:12:31.437Z,30.97
2018-12-21T05:13:07.493Z,34.27
2018-12-21T05:13:44.400Z,36.28
2018-12-21T05:14:20.435Z,35.13
2018-12-21T05:14:57.403Z,38.28
2018-12-21T05:15:33.512Z,36.77
2018-12-21T05:16:09.562Z,33.78
2018-12-21T05:16:46.066Z,30.88
2018-12-21T05:17:22.108Z,34.63
2018-12-21T05:17:58.160Z,34.23
2018-12-21T05:18:34.272Z,34.08
2018-12-21T05:19:10.555Z,35.83
2018-12-21T05:19:46.566Z,30.82
2018-12-21T05:20:23.415Z,36.28
2018-12-21T05:20:59.592Z,32.30
2018-12-21T05:21:35.675Z,34.95
2018-12-21T05:22:12.439Z,32.17
2018-12-21T05:22:52.427Z,36.30
2018-12-21T05:23:26.704Z,36.45
2018-12-21T05:24:02.783Z,37.30
2018-12-21T05:24:39.284Z,38.10
2018-12-21T05:25:16.147Z,36.13
2018-12-21T05:25:52.168Z,33.35
2018-12-21T05:26:28.214Z,31.90
2018-12-21T05:27:05.033Z,31.77
2018-12-21T05:27:41.070Z,39.30
2018-12-21T05:28:17.527Z,29.72
2018-12-21T05:28:53.564Z,32.80
2018-12-21T05:29:29.615Z,31.05
2018-12-21T05:30:07.642Z,32.28
2018-12-21T05:30:43.789Z,37.70
2018-12-21T05:31:28.045Z,35.55
2018-12-21T05:31:58.190Z,32.35
2018-12-21T05:32:34.366Z,32.83
2018-12-21T05:33:10.548Z,32.48
2018-12-21T05:33:46.660Z,33.60
2018-12-21T05:34:22.894Z,34.10
2018-12-21T05:34:58.915Z,32.13
2018-12-21T05:35:34.942Z,36.28
2018-12-21T05:36:11.047Z,32.17
2018-12-21T05:36:47.354Z,33.13
2018-12-21T05:37:23.387Z,31.80
2018-12-21T05:37:59.439Z,32.60
2018-12-21T05:38:35.511Z,33.35
2018-12-21T05:39:11.959Z,32.42
2018-12-21T05:39:47.971Z,31.15
2018-12-21T05:40:24.415Z,30.55
2018-12-21T05:41:00.463Z,29.52
2018-12-21T05:41:36.526Z,34.67
2018-12-21T05:42:12.573Z,33.18
2018-12-21T05:42:48.636Z,32.20
2018-12-21T05:43:24.706Z,32.40
2018-12-21T05:44:00.738Z,36.03
2018-12-21T05:44:36.816Z,32.10
2018-12-21T05:45:13.683Z,33.48
2018-12-21T05:45:50.111Z,30.68
2018-12-21T05:46:26.138Z,31.57
2018-12-21T05:47:02.539Z,31.97
2018-12-21T05:47:38.990Z,32.42
2018-12-21T05:48:15.442Z,34.18
2018-12-21T05:48:51.915Z,30.72
2018-12-21T05:49:27.933Z,31.17
2018-12-21T05:50:04.903Z,31.37
2018-12-21T05:50:41.035Z,34.65
2018-12-21T05:51:17.055Z,34.98
2018-12-21T05:51:53.400Z,31.00
2018-12-21T05:52:29.478Z,34.35
2018-12-21T05:53:05.499Z,33.02
2018-12-21T05:53:41.999Z,31.62
2018-12-21T05:54:18.034Z,31.60
2018-12-21T05:54:54.063Z,33.30
2018-12-21T05:55:30.490Z,34.65
2018-12-21T05:56:06.887Z,31.45
2018-12-21T05:56:43.326Z,32.13
2018-12-21T05:57:19.891Z,35.48
2018-12-21T05:57:55.936Z,30.10
2018-12-21T05:58:32.377Z,32.83
2018-12-21T05:59:08.425Z,29.77
2018-12-21T05:59:44.534Z,31.55
2018-12-21T06:00:20.618Z,30.85
2018-12-21T06:00:56.733Z,29.37
2018-12-21T06:01:32.750Z,32.80
2018-12-21T06:02:08.851Z,29.12
2018-12-21T06:02:45.618Z,29.35
2018-12-21T06:03:21.699Z,32.30
2018-12-21T06:03:57.734Z,32.42
2018-12-21T06:04:33.863Z,32.50
2018-12-21T06:05:10.898Z,31.48
2018-12-21T06:10:48.640Z,33.13
2018-12-21T06:11:24.713Z,28.12
2018-12-21T06:12:01.195Z,31.48
2018-12-21T06:12:37.230Z,28.90
2018-12-21T06:13:13.266Z,34.60
2018-12-21T06:13:49.316Z,36.55
2018-12-21T06:14:25.978Z,37.93
2018-12-21T06:15:02.020Z,32.90
2018-12-21T06:15:38.143Z,33.65
2018-12-21T06:16:14.578Z,33.02
2018-12-21T06:16:50.712Z,35.10
2018-12-21T06:17:26.773Z,31.80
2018-12-21T06:18:02.812Z,33.30
2018-12-21T06:18:38.906Z,32.28
2018-12-21T06:19:15.356Z,32.00
2018-12-21T06:19:51.740Z,33.10
2018-12-21T06:20:28.578Z,30.72
2018-12-21T06:21:05.053Z,33.85
2018-12-21T06:21:41.915Z,29.20
2018-12-21T06:22:17.938Z,34.27
2018-12-21T06:22:54.054Z,32.20
2018-12-21T06:23:30.129Z,30.15
2018-12-21T06:24:06.268Z,37.30
2018-12-21T06:24:42.368Z,34.43
2018-12-21T06:25:18.783Z,29.60
2018-12-21T06:25:54.859Z,32.23
2018-12-21T06:26:31.334Z,32.40
2018-12-21T06:27:07.427Z,30.85
2018-12-21T06:27:43.575Z,31.65
2018-12-21T06:28:19.654Z,31.85
2018-12-21T06:28:56.046Z,28.90
2018-12-21T06:29:32.180Z,28.55
2018-12-21T06:30:09.354Z,30.82
2018-12-21T06:30:45.418Z,27.10
2018-12-21T06:31:21.482Z,32.05
2018-12-21T06:31:57.631Z,29.07
2018-12-21T06:32:33.728Z,30.90
2018-12-21T06:33:09.789Z,34.08
2018-12-21T06:33:45.823Z,34.67
2018-12-21T06:34:22.271Z,32.08
2018-12-21T06:34:58.322Z,30.17
2018-12-21T06:35:34.361Z,34.48
2018-12-21T06:36:11.191Z,31.52
2018-12-21T06:36:47.221Z,33.13
2018-12-21T06:37:23.253Z,36.80
2018-12-21T06:37:59.365Z,36.60
2018-12-21T06:38:35.454Z,30.50
2018-12-21T06:39:12.419Z,32.80
2018-12-21T06:39:48.899Z,32.95
2018-12-21T06:40:24.990Z,30.17
2018-12-21T06:41:01.069Z,34.88
2018-12-21T06:41:37.855Z,37.00
2018-12-21T06:42:13.944Z,34.80
2018-12-21T06:42:50.818Z,34.73
2018-12-21T06:43:27.718Z,32.83
2018-12-21T06:44:03.788Z,36.77
2018-12-21T06:44:40.535Z,36.05
2018-12-21T06:45:16.627Z,38.10
2018-12-21T06:45:53.038Z,39.70
2018-12-21T06:46:29.109Z,33.80
2018-12-21T06:47:05.773Z,32.83
2018-12-21T06:47:41.817Z,35.78
2018-12-21T06:48:18.168Z,34.08
2018-12-21T06:48:54.242Z,36.70
2018-12-21T06:49:30.331Z,30.35
2018-12-21T06:50:07.843Z,33.02
2018-12-21T06:50:43.899Z,32.85
2018-12-21T06:51:20.403Z,37.08
2018-12-21T06:51:56.899Z,31.60
2018-12-21T06:52:33.775Z,32.08
2018-12-21T06:53:17.735Z,33.10
2018-12-21T06:53:47.905Z,33.10
2018-12-21T06:54:24.919Z,34.50
2018-12-21T06:55:01.265Z,33.10
2018-12-21T06:55:38.054Z,31.27
2018-12-21T06:56:14.486Z,35.35
2018-12-21T06:56:50.911Z,32.53
2018-12-21T06:57:27.013Z,33.75
2018-12-21T06:58:03.040Z,37.03
2018-12-21T06:58:39.073Z,32.15
2018-12-21T06:59:15.501Z,33.50
2018-12-21T06:59:51.560Z,29.48
2018-12-21T07:00:27.603Z,33.60
2018-12-21T07:01:04.096Z,36.68
2018-12-21T07:01:40.581Z,29.10
2018-12-21T07:02:16.705Z,30.23
2018-12-21T07:02:53.156Z,28.70
2018-12-21T07:03:29.195Z,33.55
2018-12-21T07:04:05.280Z,30.00
2018-12-21T07:04:41.807Z,34.13
2018-12-21T07:05:17.889Z,33.15
2018-12-21T07:05:53.947Z,27.40
2018-12-21T07:06:30.425Z,28.52
2018-12-21T07:07:06.897Z,27.10
2018-12-21T07:07:43.068Z,32.58
2018-12-21T07:08:19.502Z,31.82
2018-12-21T07:08:55.854Z,28.90
2018-12-21T07:09:32.145Z,30.05
2018-12-21T07:10:10.596Z,25.85
2018-12-21T07:10:47.046Z,29.95
2018-12-21T07:11:23.088Z,32.33
2018-12-21T07:11:59.539Z,27.52
2018-12-21T07:12:36.014Z,29.80
2018-12-21T07:13:12.055Z,29.32
2018-12-21T07:13:48.084Z,30.60
2018-12-21T07:14:24.121Z,28.98
2018-12-21T07:15:00.203Z,31.02
2018-12-21T07:15:37.550Z,27.85
2018-12-21T07:16:13.695Z,29.10
2018-12-21T07:16:49.744Z,29.80
2018-12-21T07:17:25.937Z,28.50
2018-12-21T07:18:02.362Z,28.45
2018-12-21T07:18:38.418Z,29.50
2018-12-21T07:19:14.921Z,31.57
2018-12-21T07:19:50.995Z,29.23
2018-12-21T07:20:27.462Z,28.15
2018-12-21T07:21:04.007Z,24.67
2018-12-21T07:21:40.890Z,28.83
2018-12-21T07:22:17.331Z,29.25
2018-12-21T07:22:54.080Z,30.00
2018-12-21T07:23:30.128Z,29.98
2018-12-21T07:24:06.582Z,28.67
2018-12-21T07:24:42.653Z,24.47
2018-12-21T07:25:18.692Z,27.85
2018-12-21T07:25:55.592Z,26.07
2018-12-21T07:26:31.890Z,25.95
2018-12-21T07:27:07.919Z,29.35
2018-12-21T07:27:44.083Z,30.10
2018-12-21T07:28:20.537Z,25.95
2018-12-21T07:28:56.622Z,27.77
2018-12-21T07:29:33.140Z,25.35
2018-12-21T07:30:11.847Z,28.40
2018-12-21T07:30:48.322Z,31.00
2018-12-21T07:31:24.373Z,28.62
2018-12-21T07:32:00.758Z,25.65
2018-12-21T07:32:36.794Z,29.30
2018-12-21T07:33:12.891Z,31.85
2018-12-21T07:33:48.943Z,27.50
2018-12-21T07:34:26.062Z,26.62
2018-12-21T07:35:02.980Z,28.07
2018-12-21T07:35:39.034Z,29.30
2018-12-21T07:36:15.554Z,31.60
2018-12-21T07:36:52.011Z,28.70
2018-12-21T07:37:28.874Z,29.87
2018-12-21T07:38:05.367Z,28.38
2018-12-21T07:38:41.460Z,29.32
2018-12-21T07:39:18.353Z,30.88
2018-12-21T07:39:54.813Z,31.68
2018-12-21T07:40:30.962Z,27.02
2018-12-21T07:41:07.436Z,27.27
2018-12-21T07:41:43.459Z,29.90
2018-12-21T07:42:19.487Z,26.75
2018-12-21T07:42:55.569Z,32.25
2018-12-21T07:43:31.642Z,28.57
2018-12-21T07:44:07.843Z,28.50
2018-12-21T07:44:44.299Z,28.57
2018-12-21T07:45:21.230Z,26.17
2018-12-21T07:45:57.310Z,31.20
2018-12-21T07:46:33.331Z,28.65
2018-12-21T07:47:09.400Z,28.12
2018-12-21T07:47:45.426Z,28.23
2018-12-21T07:48:22.289Z,25.50
2018-12-21T07:48:58.339Z,28.52
2018-12-21T07:49:34.470Z,25.82
2018-12-21T07:50:10.967Z,25.45
2018-12-21T07:50:47.043Z,27.87
2018-12-21T07:51:23.108Z,27.67
2018-12-21T07:51:59.183Z,26.07
2018-12-21T07:52:35.225Z,28.17
2018-12-21T07:53:11.264Z,28.87
2018-12-21T07:53:47.338Z,24.50
2018-12-21T07:54:23.803Z,26.27
2018-12-21T07:54:59.894Z,27.45
2018-12-21T07:55:35.972Z,25.65
2018-12-21T07:56:12.060Z,30.82
2018-12-21T07:56:48.114Z,30.68
2018-12-21T07:57:24.491Z,28.50
2018-12-21T07:58:00.563Z,28.80
2018-12-21T07:58:36.807Z,24.52
2018-12-21T07:59:13.266Z,26.73
2018-12-21T07:59:49.335Z,27.20